Time;durP1;ratioP1;P1;durP2;ratioP2;P2;SDS_P1;SDS_P2;PMS_P1;PMS_P2;Temp;Humidity;BMP_temperature;BMP_pressure;BME280_temperature;BME280_humidity;BME280_pressure;Samples;Min_cycle;Max_cycle;Signal;HPM_P1;HPM_P2
2022/07/21 00:00:39;;;;;;;8.82;2.95;;;20.40;99.90;;;;;;5056478;28;20659;-73
2022/07/21 00:03:05;;;;;;;10.07;3.30;;;20.40;99.90;;;;;;5059096;28;20036;-70
2022/07/21 00:05:30;;;;;;;10.43;3.60;;;20.40;99.90;;;;;;5062285;28;20079;-70
2022/07/21 00:07:56;;;;;;;10.45;3.92;;;20.40;99.90;;;;;;5037191;28;20064;-69
2022/07/21 00:10:24;;;;;;;9.27;3.65;;;20.40;99.90;;;;;;5040021;28;20118;-70
2022/07/21 00:12:50;;;;;;;9.98;3.60;;;20.40;99.90;;;;;;5057721;28;20032;-70
2022/07/21 00:15:18;;;;;;;9.77;3.85;;;20.40;99.90;;;;;;5060809;28;20080;-70
2022/07/21 00:17:44;;;;;;;7.80;3.58;;;20.50;99.90;;;;;;5055973;28;20731;-69
2022/07/21 00:20:12;;;;;;;9.25;4.07;;;20.50;99.90;;;;;;5052442;28;20101;-70
2022/07/21 00:22:38;;;;;;;10.88;4.25;;;20.50;99.90;;;;;;5058838;28;20040;-69
2022/07/21 00:25:06;;;;;;;10.77;4.07;;;20.50;99.90;;;;;;5057736;28;20036;-70
2022/07/21 00:27:32;;;;;;;7.25;3.88;;;20.60;99.90;;;;;;5054867;28;20052;-69
2022/07/21 00:29:58;;;;;;;11.23;4.20;;;20.60;99.90;;;;;;5037630;28;20127;-70
2022/07/21 00:32:24;;;;;;;12.18;4.50;;;20.50;99.90;;;;;;5037604;28;20591;-71
2022/07/21 00:34:49;;;;;;;10.20;3.95;;;20.50;99.90;;;;;;5039248;28;20024;-70
2022/07/21 00:37:15;;;;;;;9.60;4.53;;;20.60;99.90;;;;;;5053829;28;20046;-69
2022/07/21 00:39:41;;;;;;;9.18;4.25;;;20.50;99.90;;;;;;5056176;28;20717;-70
2022/07/21 00:42:06;;;;;;;12.70;4.57;;;20.50;99.90;;;;;;5052285;28;20132;-70
2022/07/21 00:44:32;;;;;;;14.25;4.90;;;20.50;99.90;;;;;;5037955;28;20074;-70
2022/07/21 00:46:59;;;;;;;12.30;5.20;;;20.50;99.90;;;;;;5043015;28;20067;-70
2022/07/21 00:49:25;;;;;;;11.77;4.88;;;20.50;99.90;;;;;;5054668;28;20109;-71
2022/07/21 00:51:51;;;;;;;11.63;4.90;;;20.50;99.90;;;;;;5057665;28;20045;-72
2022/07/21 00:54:18;;;;;;;13.77;4.78;;;20.50;99.90;;;;;;5052990;28;20585;-71
2022/07/21 00:56:45;;;;;;;9.40;4.13;;;20.50;99.90;;;;;;5038447;28;20789;-68
2022/07/21 00:59:12;;;;;;;11.23;4.40;;;20.50;99.90;;;;;;5055270;28;20051;-69
2022/07/21 01:01:38;;;;;;;8.10;4.10;;;20.50;99.90;;;;;;5055548;28;20598;-70
2022/07/21 01:04:04;;;;;;;9.82;4.50;;;20.50;99.90;;;;;;5055768;28;20047;-69
2022/07/21 01:06:30;;;;;;;13.63;4.47;;;20.50;99.90;;;;;;5037997;28;20052;-70
2022/07/21 01:08:56;;;;;;;12.00;4.47;;;20.50;99.90;;;;;;5035776;28;20056;-69
2022/07/21 01:11:24;;;;;;;10.95;4.90;;;20.50;99.90;;;;;;5056217;28;20061;-71
2022/07/21 01:13:51;;;;;;;11.32;4.97;;;20.50;99.90;;;;;;5052870;28;20032;-70
2022/07/21 01:16:17;;;;;;;13.55;5.43;;;20.40;99.90;;;;;;5035293;28;20048;-68
2022/07/21 01:18:42;;;;;;;12.80;6.32;;;20.40;99.90;;;;;;5054721;28;20553;-70
2022/07/21 01:21:28;;;;;;;22.98;7.82;;;20.20;99.90;;;;;;5037957;28;20056;-68
2022/07/21 01:23:54;;;;;;;25.83;9.95;;;20.00;99.90;;;;;;5048736;28;20073;-69
2022/07/21 01:26:20;;;;;;;25.60;11.02;;;19.60;99.90;;;;;;5050580;28;20235;-69
2022/07/21 01:28:46;;;;;;;31.33;13.60;;;19.30;99.90;;;;;;5037413;28;20547;-69
2022/07/21 01:31:12;;;;;;;26.23;14.57;;;19.10;99.90;;;;;;5041650;28;20055;-69
2022/07/21 01:33:38;;;;;;;19.55;12.23;;;19.00;99.90;;;;;;5051122;28;20045;-67
2022/07/21 01:36:04;;;;;;;27.02;14.60;;;18.80;99.90;;;;;;5033791;28;20106;-69
2022/07/21 01:41:29;;;;;;;41.72;21.58;;;18.80;99.90;;;;;;5054456;28;20127;-68
2022/07/21 01:43:55;;;;;;;27.33;17.85;;;18.60;99.90;;;;;;5053479;28;20063;-69
2022/07/21 01:46:21;;;;;;;29.27;18.38;;;18.70;99.90;;;;;;5051767;28;20035;-67
2022/07/21 01:48:47;;;;;;;28.52;18.50;;;18.60;99.90;;;;;;5019110;28;20051;-68
2022/07/21 01:51:12;;;;;;;39.60;22.38;;;18.60;99.90;;;;;;5034994;28;20726;-68
2022/07/21 01:53:39;;;;;;;34.10;18.45;;;18.60;99.90;;;;;;5041576;28;20036;-68
2022/07/21 01:56:05;;;;;;;34.78;20.52;;;18.60;99.90;;;;;;5057073;28;20556;-70
2022/07/21 01:58:31;;;;;;;30.67;17.77;;;18.50;99.90;;;;;;5056253;28;20697;-69
2022/07/21 02:00:57;;;;;;;33.08;21.33;;;18.60;99.90;;;;;;5057045;28;20075;-70
2022/07/21 02:03:23;;;;;;;29.85;19.80;;;18.50;99.90;;;;;;5058189;28;20624;-68
2022/07/21 02:05:49;;;;;;;30.08;19.13;;;18.40;99.90;;;;;;5036427;28;20089;-68
2022/07/21 02:08:14;;;;;;;28.50;18.98;;;18.50;99.90;;;;;;5032886;28;20090;-68
2022/07/21 02:10:40;;;;;;;38.63;21.85;;;18.60;99.90;;;;;;5052469;28;20036;-68
2022/07/21 02:13:06;;;;;;;28.80;20.63;;;18.60;99.90;;;;;;5038566;28;20745;-69
2022/07/21 02:15:32;;;;;;;44.78;25.58;;;18.60;99.90;;;;;;5055066;28;20139;-70
2022/07/21 02:17:58;;;;;;;50.63;29.23;;;18.60;99.90;;;;;;5034065;28;20133;-68
2022/07/21 02:20:25;;;;;;;35.33;24.05;;;18.50;99.90;;;;;;5055073;28;20595;-68
2022/07/21 02:22:51;;;;;;;37.92;24.33;;;18.50;99.90;;;;;;5052725;28;20054;-68
2022/07/21 02:25:17;;;;;;;54.03;28.55;;;18.40;99.90;;;;;;5020517;28;20440;-69
2022/07/21 02:27:44;;;;;;;34.58;23.95;;;18.30;99.90;;;;;;5036920;28;20055;-68
2022/07/21 02:30:11;;;;;;;47.83;28.23;;;18.30;99.90;;;;;;5055101;28;20155;-68
2022/07/21 02:32:37;;;;;;;38.15;21.80;;;18.50;99.90;;;;;;5038170;28;20778;-67
2022/07/21 02:35:03;;;;;;;35.33;24.90;;;18.40;99.90;;;;;;5052784;28;20667;-68
2022/07/21 02:37:29;;;;;;;40.70;24.85;;;18.30;99.90;;;;;;5051019;28;20024;-70
2022/07/21 02:39:54;;;;;;;36.03;26.05;;;18.40;99.90;;;;;;5054428;28;20039;-68
2022/07/21 02:42:20;;;;;;;50.65;31.02;;;18.30;99.90;;;;;;5053644;28;21105;-68
2022/07/21 02:44:46;;;;;;;38.30;26.42;;;18.40;99.90;;;;;;5051764;28;20134;-68
2022/07/21 02:47:11;;;;;;;43.42;28.67;;;18.30;99.90;;;;;;5033115;28;20078;-70
2022/07/21 02:49:37;;;;;;;37.70;27.60;;;18.40;99.90;;;;;;5051205;28;20044;-69
2022/07/21 02:52:03;;;;;;;42.47;28.70;;;18.50;99.90;;;;;;5057968;28;20040;-67
2022/07/21 02:54:29;;;;;;;51.45;32.20;;;18.40;99.90;;;;;;5037089;28;20544;-68
2022/07/21 02:56:55;;;;;;;44.28;29.73;;;18.30;99.90;;;;;;5033124;28;20197;-68
2022/07/21 02:59:20;;;;;;;43.08;29.08;;;18.40;99.90;;;;;;5032568;28;20048;-69
2022/07/21 03:01:47;;;;;;;59.47;36.83;;;18.50;99.90;;;;;;5035645;28;20845;-69
2022/07/21 03:04:12;;;;;;;47.33;30.90;;;18.50;99.90;;;;;;5055441;28;20044;-71
2022/07/21 03:06:38;;;;;;;54.22;34.42;;;18.30;99.90;;;;;;5051193;28;20036;-72
2022/07/21 03:09:04;;;;;;;52.78;35.42;;;18.50;99.90;;;;;;5052906;28;20099;-70
2022/07/21 03:11:30;;;;;;;44.22;29.10;;;18.40;99.90;;;;;;5056095;28;20032;-68
2022/07/21 03:13:55;;;;;;;46.67;32.00;;;18.60;99.90;;;;;;5055725;28;20040;-69
2022/07/21 03:16:21;;;;;;;44.25;30.00;;;18.50;99.90;;;;;;5050104;28;20036;-69
2022/07/21 03:18:47;;;;;;;42.03;28.40;;;18.40;99.90;;;;;;5053091;28;20040;-72
2022/07/21 03:21:13;;;;;;;45.53;27.67;;;18.40;99.90;;;;;;5057012;28;20252;-70
2022/07/21 03:23:39;;;;;;;39.95;28.00;;;18.40;99.90;;;;;;5052067;28;20143;-69
2022/07/21 03:26:05;;;;;;;49.90;31.85;;;18.30;99.90;;;;;;5034573;28;20021;-71
2022/07/21 03:28:31;;;;;;;42.78;29.83;;;18.50;99.90;;;;;;5032743;28;20123;-69
2022/07/21 03:30:56;;;;;;;46.67;32.20;;;18.50;99.90;;;;;;5056646;28;20873;-69
2022/07/21 03:33:22;;;;;;;47.72;32.97;;;18.30;99.90;;;;;;5057541;28;20059;-69
2022/07/21 03:35:48;;;;;;;37.53;28.02;;;18.20;99.90;;;;;;5057364;28;20136;-68
2022/07/21 03:38:14;;;;;;;43.08;28.30;;;18.50;99.90;;;;;;5052428;28;20072;-70
2022/07/21 03:40:39;;;;;;;51.55;33.80;;;18.50;99.90;;;;;;5056714;28;20067;-70
2022/07/21 03:43:06;;;;;;;42.72;30.30;;;18.40;99.90;;;;;;5051496;28;20040;-68
2022/07/21 03:45:33;;;;;;;43.47;31.38;;;18.30;99.90;;;;;;5054811;28;20587;-69
2022/07/21 03:48:01;;;;;;;44.53;31.08;;;18.30;99.90;;;;;;5053992;28;20036;-69
2022/07/21 03:50:28;;;;;;;44.88;30.85;;;18.20;99.90;;;;;;5057348;28;20058;-69
2022/07/21 03:52:54;;;;;;;37.83;28.33;;;18.20;99.90;;;;;;5047406;28;21138;-68
2022/07/21 03:55:20;;;;;;;48.88;34.67;;;18.20;99.90;;;;;;5031225;28;20044;-70
2022/07/21 03:57:51;;;;;;;47.22;33.58;;;18.40;99.90;;;;;;5050279;28;20036;-70
2022/07/21 04:00:38;;;;;;;51.95;36.17;;;18.30;99.90;;;;;;5055447;28;20048;-70
2022/07/21 04:03:05;;;;;;;40.17;30.80;;;18.50;99.90;;;;;;5058978;28;20093;-70
2022/07/21 04:05:31;;;;;;;42.97;30.63;;;18.60;99.90;;;;;;5053669;28;20048;-69
2022/07/21 04:07:57;;;;;;;46.08;30.27;;;18.50;99.90;;;;;;5056864;28;20041;-68
2022/07/21 04:10:27;;;;;;;42.05;30.55;;;18.30;99.90;;;;;;5041764;28;20151;-70
2022/07/21 04:12:55;;;;;;;63.42;38.65;;;18.40;99.90;;;;;;5058859;28;20060;-69
2022/07/21 04:15:20;;;;;;;47.50;33.45;;;18.40;99.90;;;;;;5022243;28;20040;-70
2022/07/21 04:17:46;;;;;;;45.00;32.40;;;18.60;99.90;;;;;;5058850;28;20377;-69
2022/07/21 04:20:13;;;;;;;52.63;34.60;;;18.40;99.90;;;;;;5064281;28;20041;-70
2022/07/21 04:22:40;;;;;;;45.65;33.38;;;18.60;99.90;;;;;;5041540;28;20063;-69
2022/07/21 04:25:07;;;;;;;50.80;36.17;;;18.40;99.90;;;;;;5060728;28;20080;-68
2022/07/21 04:27:34;;;;;;;51.60;36.10;;;18.50;99.90;;;;;;5066641;28;20163;-68
2022/07/21 04:30:00;;;;;;;49.10;34.70;;;18.60;99.90;;;;;;5061518;28;20047;-72
2022/07/21 04:32:25;;;;;;;55.08;37.60;;;18.70;99.90;;;;;;5052393;28;20044;-70
2022/07/21 04:34:51;;;;;;;55.22;38.45;;;18.60;99.90;;;;;;5058397;28;20050;-69
2022/07/21 04:37:17;;;;;;;56.05;38.15;;;18.40;99.90;;;;;;5056659;28;20323;-69
2022/07/21 04:39:43;;;;;;;50.60;34.80;;;18.60;99.90;;;;;;5039589;28;20725;-71
2022/07/21 04:42:08;;;;;;;54.53;37.00;;;18.50;99.90;;;;;;5056652;28;20102;-69
2022/07/21 04:44:34;;;;;;;63.97;41.70;;;18.60;99.90;;;;;;5039387;28;20040;-71
2022/07/21 04:47:00;;;;;;;50.85;33.55;;;18.70;99.90;;;;;;5052875;28;20053;-69
2022/07/21 04:49:26;;;;;;;72.05;44.17;;;18.70;99.90;;;;;;5056087;28;20044;-68
2022/07/21 04:51:51;;;;;;;53.85;37.33;;;18.70;99.90;;;;;;5053662;28;20112;-69
2022/07/21 04:54:17;;;;;;;57.78;38.13;;;18.60;99.90;;;;;;5039219;28;20779;-69
2022/07/21 04:56:43;;;;;;;67.68;42.35;;;18.80;99.90;;;;;;5035108;28;20650;-69
2022/07/21 04:59:10;;;;;;;68.07;42.40;;;18.80;99.90;;;;;;5023469;28;20048;-69
2022/07/21 05:01:37;;;;;;;59.88;41.17;;;18.60;99.90;;;;;;5053238;28;20105;-68
2022/07/21 05:04:03;;;;;;;66.47;43.80;;;18.90;99.90;;;;;;5050609;28;20036;-68
2022/07/21 05:06:29;;;;;;;57.78;38.85;;;18.90;99.90;;;;;;5052797;28;20036;-68
2022/07/21 05:08:54;;;;;;;61.35;38.97;;;19.10;99.90;;;;;;5040687;28;20054;-70
2022/07/21 05:11:20;;;;;;;51.92;35.22;;;19.00;99.90;;;;;;5059740;28;20033;-68
2022/07/21 05:13:46;;;;;;;64.85;39.70;;;19.10;99.90;;;;;;5036240;28;20067;-68
2022/07/21 05:16:11;;;;;;;60.55;40.10;;;18.80;99.90;;;;;;5063017;28;20383;-70
2022/07/21 05:18:37;;;;;;;55.05;37.35;;;19.00;99.90;;;;;;5045671;28;20079;-68
2022/07/21 05:21:03;;;;;;;91.53;51.78;;;18.90;99.90;;;;;;5064589;28;20515;-71
2022/07/21 05:23:28;;;;;;;60.17;40.22;;;18.80;99.90;;;;;;5056160;28;20044;-69
2022/07/21 05:25:54;;;;;;;50.63;37.85;;;18.90;99.90;;;;;;5037241;28;20504;-69
2022/07/21 05:28:20;;;;;;;58.63;41.30;;;18.80;99.90;;;;;;5057194;28;20635;-69
2022/07/21 05:30:45;;;;;;;54.83;38.65;;;19.10;99.90;;;;;;5041151;28;20818;-69
2022/07/21 05:33:11;;;;;;;57.60;40.97;;;19.10;99.90;;;;;;5056021;28;20059;-71
2022/07/21 05:35:37;;;;;;;63.80;42.95;;;19.00;99.90;;;;;;5053044;28;20476;-71
2022/07/21 05:38:02;;;;;;;62.13;41.53;;;18.90;99.90;;;;;;5064127;28;20052;-70
2022/07/21 05:40:28;;;;;;;55.45;39.58;;;19.10;99.90;;;;;;5047921;28;20635;-69
2022/07/21 05:42:54;;;;;;;55.83;40.63;;;19.20;99.90;;;;;;5040207;28;20608;-70
2022/07/21 05:45:19;;;;;;;61.42;42.22;;;19.20;99.90;;;;;;5049271;28;20033;-71
2022/07/21 05:47:45;;;;;;;56.05;41.08;;;19.00;99.90;;;;;;5038899;28;20048;-68
2022/07/21 05:50:11;;;;;;;56.80;40.53;;;19.20;99.90;;;;;;5033861;28;20447;-69
2022/07/21 05:52:38;;;;;;;70.57;46.40;;;18.90;99.90;;;;;;5060167;28;20039;-70
2022/07/21 05:55:04;;;;;;;80.40;49.97;;;19.20;99.90;;;;;;5055266;28;20048;-70
2022/07/21 05:57:30;;;;;;;62.30;42.67;;;18.90;99.90;;;;;;5026227;28;20040;-72
2022/07/21 05:59:56;;;;;;;57.47;39.83;;;18.90;99.90;;;;;;5057286;28;20109;-68
2022/07/21 06:02:21;;;;;;;56.38;43.97;;;19.20;99.90;;;;;;5054095;28;20032;-70
2022/07/21 06:04:47;;;;;;;56.17;41.00;;;19.10;99.90;;;;;;5053542;28;20036;-70
2022/07/21 06:07:13;;;;;;;54.92;41.28;;;19.30;99.90;;;;;;5054881;28;20141;-69
2022/07/21 06:09:38;;;;;;;52.05;40.85;;;19.50;99.90;;;;;;5034532;28;20400;-70
2022/07/21 06:12:04;;;;;;;58.00;45.15;;;19.70;99.90;;;;;;5058322;28;20101;-69
2022/07/21 06:14:30;;;;;;;80.40;52.47;;;19.80;99.90;;;;;;5060902;28;20151;-70
2022/07/21 06:16:56;;;;;;;55.33;40.40;;;20.00;99.90;;;;;;5054231;28;20045;-68
2022/07/21 06:19:21;;;;;;;41.90;36.25;;;20.00;99.90;;;;;;5055293;28;20695;-68
2022/07/21 06:21:47;;;;;;;49.20;40.83;;;20.30;99.90;;;;;;5032706;28;20426;-69
2022/07/21 06:24:14;;;;;;;44.95;38.97;;;20.30;99.90;;;;;;5036639;28;20048;-68
2022/07/21 06:26:39;;;;;;;117.28;43.40;;;20.50;99.90;;;;;;5034923;28;20655;-68
2022/07/21 06:29:06;;;;;;;49.50;38.47;;;20.50;99.90;;;;;;5055742;28;20118;-70
2022/07/21 06:31:32;;;;;;;35.97;32.20;;;20.20;99.90;;;;;;5016738;28;20127;-69
2022/07/21 06:33:58;;;;;;;42.75;36.85;;;20.50;99.90;;;;;;5053594;28;20720;-71
2022/07/21 06:36:24;;;;;;;36.10;32.20;;;20.60;99.90;;;;;;5057225;28;20158;-69
2022/07/21 06:38:49;;;;;;;34.40;30.80;;;21.00;99.90;;;;;;5050170;28;20047;-69
2022/07/21 06:41:15;;;;;;;33.60;30.25;;;21.10;99.90;;;;;;5045663;28;20285;-69
2022/07/21 06:43:41;;;;;;;30.10;27.27;;;21.30;99.90;;;;;;5050333;28;20055;-72
2022/07/21 06:46:07;;;;;;;31.98;28.88;;;21.10;99.90;;;;;;5033240;28;20040;-71
2022/07/21 06:48:32;;;;;;;28.38;25.77;;;21.20;99.90;;;;;;5051705;28;20076;-70
2022/07/21 06:50:58;;;;;;;26.85;24.10;;;21.30;99.90;;;;;;5028047;28;20041;-70
2022/07/21 06:53:24;;;;;;;28.02;25.27;;;21.70;99.90;;;;;;5050416;28;20435;-70
2022/07/21 06:55:52;;;;;;;31.35;28.30;;;21.40;99.90;;;;;;5051515;28;21033;-69
2022/07/21 06:58:21;;;;;;;30.63;27.52;;;21.50;99.90;;;;;;5029242;28;20194;-70
2022/07/21 07:00:49;;;;;;;24.52;22.10;;;21.40;99.90;;;;;;5054939;28;20051;-69
2022/07/21 07:03:15;;;;;;;22.80;20.60;;;21.40;99.90;;;;;;5055029;28;20044;-70
2022/07/21 07:05:42;;;;;;;24.85;22.50;;;21.30;99.90;;;;;;5055948;28;20048;-71
2022/07/21 07:08:09;;;;;;;21.38;19.35;;;21.60;99.90;;;;;;5032808;28;20072;-70
2022/07/21 07:10:35;;;;;;;23.17;20.98;;;21.50;99.90;;;;;;5036904;28;20044;-70
2022/07/21 07:13:01;;;;;;;24.50;22.30;;;21.60;99.90;;;;;;5018271;28;20040;-70
2022/07/21 07:15:28;;;;;;;23.45;21.25;;;21.40;99.90;;;;;;5020698;28;20044;-70
2022/07/21 07:17:55;;;;;;;21.30;19.42;;;21.70;99.90;;;;;;5016094;28;20092;-70
2022/07/21 07:20:22;;;;;;;22.80;20.55;;;21.60;99.90;;;;;;5015358;28;20040;-69
2022/07/21 07:22:49;;;;;;;23.92;21.67;;;21.60;99.90;;;;;;5018292;28;20036;-68
2022/07/21 07:25:17;;;;;;;23.45;21.13;;;21.40;99.90;;;;;;5035333;28;20040;-69
2022/07/21 07:27:48;;;;;;;22.95;20.50;;;21.40;99.90;;;;;;5020113;28;20047;-73
2022/07/21 07:30:15;;;;;;;25.17;22.88;;;21.40;99.90;;;;;;5017729;28;20048;-69
2022/07/21 07:32:41;;;;;;;25.40;22.95;;;21.30;99.90;;;;;;5018166;28;20036;-70
2022/07/21 07:35:08;;;;;;;24.15;21.85;;;21.10;99.90;;;;;;4986131;28;20048;-70
2022/07/21 07:37:35;;;;;;;24.23;21.90;;;21.10;99.90;;;;;;5019055;28;20599;-71
2022/07/21 07:40:04;;;;;;;24.83;22.35;;;20.90;99.90;;;;;;5035256;28;20103;-72
2022/07/21 07:42:30;;;;;;;26.35;23.73;;;21.00;99.90;;;;;;5015651;28;20057;-71
2022/07/21 07:44:55;;;;;;;26.38;23.90;;;21.10;99.90;;;;;;5021109;28;20739;-72
2022/07/21 07:47:23;;;;;;;26.45;24.08;;;21.00;99.90;;;;;;5002393;28;20428;-71
2022/07/21 07:49:50;;;;;;;29.38;26.67;;;21.10;99.90;;;;;;5036846;28;20045;-71
2022/07/21 07:52:16;;;;;;;27.33;24.70;;;21.10;99.90;;;;;;5019864;28;20052;-69
2022/07/21 07:54:42;;;;;;;28.05;25.45;;;21.00;99.90;;;;;;5001728;28;20051;-70
2022/07/21 07:57:08;;;;;;;28.95;26.10;;;20.90;99.90;;;;;;5017427;28;20280;-70
2022/07/21 07:59:33;;;;;;;30.52;27.48;;;20.90;99.90;;;;;;5020718;28;20588;-70
2022/07/21 08:01:59;;;;;;;30.83;27.83;;;20.90;99.90;;;;;;5017596;28;20044;-69
2022/07/21 08:04:25;;;;;;;31.98;28.77;;;20.90;99.90;;;;;;5039614;28;20052;-69
2022/07/21 08:06:51;;;;;;;30.38;27.40;;;20.80;99.90;;;;;;5019846;28;20106;-67
2022/07/21 08:09:18;;;;;;;31.67;28.42;;;20.70;99.90;;;;;;5037836;28;20057;-74
2022/07/21 08:11:46;;;;;;;31.35;28.48;;;20.50;99.90;;;;;;5021644;28;20071;-70
2022/07/21 08:14:14;;;;;;;33.33;30.05;;;20.30;99.90;;;;;;5018566;28;20603;-70
2022/07/21 08:16:40;;;;;;;34.58;30.92;;;20.20;99.90;;;;;;5034887;28;20507;-70
2022/07/21 08:19:06;;;;;;;33.97;30.48;;;19.90;99.90;;;;;;5003698;28;20047;-71
2022/07/21 08:21:33;;;;;;;34.28;31.02;;;19.70;99.90;;;;;;5052954;28;20695;-69
2022/07/21 08:24:00;;;;;;;39.08;34.38;;;19.50;99.90;;;;;;5033304;28;20056;-71
2022/07/21 08:26:26;;;;;;;40.78;36.50;;;19.60;99.90;;;;;;5053630;28;20699;-70
2022/07/21 08:28:53;;;;;;;40.38;36.28;;;19.50;99.90;;;;;;5063826;28;20104;-70
2022/07/21 08:31:19;;;;;;;41.00;36.90;;;19.20;99.90;;;;;;5052804;28;20558;-71
2022/07/21 08:33:45;;;;;;;40.05;35.55;;;19.20;99.90;;;;;;5033551;28;20549;-70
2022/07/21 08:36:10;;;;;;;39.80;35.67;;;19.30;99.90;;;;;;5055092;28;20131;-69
2022/07/21 08:38:36;;;;;;;45.45;40.95;;;19.40;99.90;;;;;;5016027;28;20040;-69
2022/07/21 08:41:02;;;;;;;40.55;36.60;;;19.10;99.90;;;;;;5052417;28;20044;-70
2022/07/21 08:43:29;;;;;;;42.85;38.70;;;19.20;99.90;;;;;;5058846;28;20440;-71
2022/07/21 08:45:55;;;;;;;41.60;37.53;;;19.20;99.90;;;;;;5051846;28;20057;-70
2022/07/21 08:48:26;;;;;;;40.10;36.30;;;19.60;99.90;;;;;;5053389;28;20074;-69
2022/07/21 08:50:52;;;;;;;39.90;36.00;;;19.40;99.90;;;;;;5054654;28;20083;-70
2022/07/21 08:53:18;;;;;;;38.83;34.63;;;19.80;99.90;;;;;;5050036;28;20638;-69
2022/07/21 08:55:44;;;;;;;35.75;32.50;;;19.80;99.90;;;;;;5054975;28;20056;-71
2022/07/21 08:58:11;;;;;;;39.75;36.00;;;19.90;99.90;;;;;;5031731;28;20141;-70
2022/07/21 09:00:42;;;;;;;39.95;36.28;;;20.10;99.90;;;;;;5050636;28;20114;-69
2022/07/21 09:03:20;;;;;;;36.75;33.20;;;20.50;99.90;;;;;;5054899;28;20854;-67
2022/07/21 09:06:08;;;;;;;38.53;35.00;;;20.70;99.90;;;;;;5055158;28;20127;-69
2022/07/21 09:08:40;;;;;;;34.72;31.50;;;20.90;99.90;;;;;;5055766;28;20048;-69
2022/07/21 09:11:18;;;;;;;34.95;31.77;;;20.90;99.90;;;;;;5039573;28;20640;-68
2022/07/21 09:13:46;;;;;;;33.08;30.08;;;21.00;99.90;;;;;;5052161;28;20589;-70
2022/07/21 09:16:12;;;;;;;32.75;29.60;;;21.10;99.90;;;;;;5019966;28;20044;-68
2022/07/21 09:18:51;;;;;;;30.50;27.92;;;21.40;99.90;;;;;;5054675;28;20048;-69
2022/07/21 09:21:18;;;;;;;31.02;28.42;;;21.50;99.90;;;;;;5055434;28;20504;-68
2022/07/21 09:23:44;;;;;;;31.55;28.73;;;21.80;99.90;;;;;;5053349;28;20106;-69
2022/07/21 09:26:09;;;;;;;31.27;28.55;;;21.90;99.90;;;;;;5051093;28;20037;-70
2022/07/21 09:28:35;;;;;;;29.25;26.65;;;22.20;99.90;;;;;;5044979;28;20102;-69
2022/07/21 09:31:06;;;;;;;27.65;25.20;;;22.30;99.90;;;;;;5047644;28;20040;-71
2022/07/21 09:33:34;;;;;;;26.48;24.27;;;22.50;99.90;;;;;;5058266;28;20079;-70
2022/07/21 09:36:03;;;;;;;23.27;21.17;;;22.60;99.90;;;;;;5032820;28;20147;-67
2022/07/21 09:38:32;;;;;;;24.45;22.35;;;22.80;99.90;;;;;;5036359;28;20048;-69
2022/07/21 09:41:28;;;;;;;23.08;20.88;;;22.90;99.90;;;;;;5055695;28;20059;-70
2022/07/21 09:43:57;;;;;;;19.73;18.13;;;23.00;99.90;;;;;;5044346;28;20075;-69
2022/07/21 09:46:28;;;;;;;17.88;16.30;;;23.20;99.90;;;;;;5049752;28;20037;-69
2022/07/21 09:48:56;;;;;;;17.27;15.60;;;23.30;99.90;;;;;;5035315;28;20027;-69
2022/07/21 09:51:37;;;;;;;15.77;14.48;;;23.40;99.90;;;;;;5051729;28;20098;-71
2022/07/21 09:54:05;;;;;;;13.68;12.38;;;23.40;99.90;;;;;;5054675;28;20408;-68
2022/07/21 09:56:41;;;;;;;14.90;13.68;;;23.50;99.90;;;;;;5056025;28;20045;-68
2022/07/21 09:59:09;;;;;;;13.02;11.65;;;23.90;99.90;;;;;;5054921;28;20048;-67
2022/07/21 10:01:36;;;;;;;14.57;13.32;;;24.10;99.90;;;;;;5058201;28;20392;-67
2022/07/21 10:04:02;;;;;;;13.30;12.20;;;24.30;99.90;;;;;;5056477;28;20049;-70
2022/07/21 10:06:31;;;;;;;12.98;11.95;;;24.70;99.90;;;;;;5053676;28;20055;-69
2022/07/21 10:08:58;;;;;;;15.13;13.73;;;25.30;99.90;;;;;;5055439;28;20088;-69
2022/07/21 10:11:26;;;;;;;14.07;12.95;;;25.30;99.90;;;;;;5053679;28;21005;-72
2022/07/21 10:13:52;;;;;;;14.95;13.63;;;25.00;99.90;;;;;;5021878;28;20605;-70
2022/07/21 10:16:19;;;;;;;15.52;14.20;;;24.50;99.90;;;;;;5034734;28;20046;-69
2022/07/21 10:18:50;;;;;;;15.73;14.23;;;24.00;99.90;;;;;;5057225;28;20611;-70
2022/07/21 10:21:31;;;;;;;16.73;15.23;;;23.40;99.90;;;;;;5037632;28;20040;-68
2022/07/21 10:23:57;;;;;;;19.17;17.27;;;23.10;99.90;;;;;;5041138;28;20564;-70
2022/07/21 10:26:23;;;;;;;19.85;18.10;;;22.80;99.90;;;;;;5019492;28;20508;-69
2022/07/21 10:28:49;;;;;;;19.33;17.60;;;22.60;99.90;;;;;;5056688;28;20060;-72
2022/07/21 10:31:20;;;;;;;19.58;17.83;;;22.50;99.90;;;;;;5005687;28;20040;-70
2022/07/21 10:33:46;;;;;;;19.15;17.38;;;22.40;99.90;;;;;;5024776;28;20048;-70
2022/07/21 10:36:35;;;;;;;19.63;17.77;;;22.30;99.90;;;;;;5056225;28;20044;-68
2022/07/21 10:39:07;;;;;;;19.25;17.50;;;22.30;99.90;;;;;;5029006;28;20062;-70
2022/07/21 10:41:45;;;;;;;18.42;16.75;;;22.40;99.90;;;;;;5036974;28;20099;-68
2022/07/21 10:44:31;;;;;;;20.73;18.95;;;22.60;99.90;;;;;;5037381;28;20074;-70
2022/07/21 10:47:20;;;;;;;21.92;20.02;;;22.70;99.90;;;;;;5045660;28;20139;-69
2022/07/21 10:49:57;;;;;;;22.48;20.65;;;22.60;99.90;;;;;;5021730;28;20048;-68
2022/07/21 10:52:49;;;;;;;22.48;20.58;;;22.60;99.90;;;;;;5036302;28;20589;-70
2022/07/21 10:55:23;;;;;;;22.25;20.45;;;22.50;99.90;;;;;;5052234;28;20049;-69
2022/07/21 10:58:08;;;;;;;23.83;21.83;;;22.60;99.90;;;;;;5036476;28;20106;-70
2022/07/21 11:00:36;;;;;;;23.02;20.92;;;22.60;99.90;;;;;;5015364;28;20051;-69
2022/07/21 11:03:22;;;;;;;24.23;22.02;;;22.60;99.90;;;;;;5040803;28;20047;-68
2022/07/21 11:06:06;;;;;;;26.70;24.25;;;22.50;99.90;;;;;;5051879;28;20033;-69
2022/07/21 11:08:36;;;;;;;27.00;24.40;;;22.40;99.90;;;;;;5038224;28;20114;-68
2022/07/21 11:11:22;;;;;;;25.35;22.75;;;22.50;99.90;;;;;;5055697;28;20040;-71
2022/07/21 11:13:57;;;;;;;25.73;23.40;;;22.50;99.90;;;;;;5053593;28;20050;-69
2022/07/21 11:16:49;;;;;;;25.42;22.92;;;22.40;99.90;;;;;;5033478;28;20123;-68
2022/07/21 11:19:33;;;;;;;24.60;22.42;;;22.60;99.90;;;;;;5039932;28;20046;-69
2022/07/21 11:22:02;;;;;;;25.98;23.63;;;22.80;99.90;;;;;;5058091;28;20936;-68
2022/07/21 11:24:29;;;;;;;26.67;24.25;;;22.80;99.90;;;;;;5052424;28;20130;-69
2022/07/21 11:26:56;;;;;;;25.67;23.45;;;23.00;99.90;;;;;;5040811;28;20036;-69
2022/07/21 11:29:23;;;;;;;25.27;22.77;;;23.00;99.90;;;;;;5042558;28;20186;-71
2022/07/21 11:31:49;;;;;;;24.85;22.42;;;23.00;99.90;;;;;;5036977;28;20047;-70
2022/07/21 11:34:16;;;;;;;23.98;21.70;;;23.10;99.90;;;;;;5038273;28;20079;-68
2022/07/21 11:36:42;;;;;;;22.73;20.73;;;23.00;99.90;;;;;;5023325;28;20685;-67
2022/07/21 11:39:10;;;;;;;23.48;21.38;;;23.00;99.90;;;;;;5020831;28;20044;-70
2022/07/21 11:41:38;;;;;;;23.17;21.13;;;23.00;99.90;;;;;;5034822;28;20667;-71
2022/07/21 11:44:05;;;;;;;23.42;21.00;;;23.00;99.90;;;;;;5039645;28;20032;-68
2022/07/21 11:46:48;;;;;;;25.80;23.42;;;22.90;99.90;;;;;;5041670;28;20063;-68
2022/07/21 11:49:14;;;;;;;28.05;25.33;;;23.00;99.90;;;;;;5023245;28;20052;-71
2022/07/21 11:51:47;;;;;;;29.20;26.48;;;22.90;99.90;;;;;;5056830;28;20051;-68
2022/07/21 11:54:28;;;;;;;29.55;26.85;;;22.90;99.90;;;;;;5038028;28;20437;-68
2022/07/21 11:56:55;;;;;;;31.58;28.55;;;23.00;99.90;;;;;;5040154;28;20047;-69
2022/07/21 11:59:22;;;;;;;33.72;30.52;;;23.00;99.90;;;;;;5037065;28;20261;-70
2022/07/21 12:01:49;;;;;;;34.08;30.98;;;23.10;99.90;;;;;;5055161;28;20303;-68
2022/07/21 12:04:26;;;;;;;37.63;34.08;;;23.30;99.90;;;;;;5040329;28;20724;-71
2022/07/21 12:06:52;;;;;;;35.25;31.75;;;23.50;99.90;;;;;;5039844;28;20157;-70
2022/07/21 12:09:19;;;;;;;37.55;34.05;;;23.70;99.90;;;;;;5040953;28;20056;-71
2022/07/21 12:11:44;;;;;;;34.85;31.30;;;23.90;99.90;;;;;;5054683;28;20134;-70
2022/07/21 12:14:10;;;;;;;36.40;32.95;;;23.90;99.90;;;;;;5024377;28;20331;-68
2022/07/21 12:16:53;;;;;;;37.70;34.03;;;24.10;99.90;;;;;;5041701;28;20032;-69
2022/07/21 12:19:20;;;;;;;35.28;31.77;;;24.20;99.90;;;;;;5023943;28;20052;-69
2022/07/21 12:21:49;;;;;;;35.60;32.13;;;24.10;99.90;;;;;;5053458;28;20127;-69
2022/07/21 12:24:16;;;;;;;32.08;28.95;;;24.10;99.90;;;;;;5038871;28;20631;-68
2022/07/21 12:26:41;;;;;;;31.52;28.73;;;24.10;99.90;;;;;;5035637;28;20044;-71
2022/07/21 12:29:08;;;;;;;25.58;23.10;;;23.80;99.90;;;;;;5036524;28;20049;-70
2022/07/21 12:31:36;;;;;;;22.73;20.63;;;23.40;99.90;;;;;;5021937;28;20475;-68
2022/07/21 12:34:14;;;;;;;25.48;23.08;;;23.00;99.90;;;;;;5042348;28;20161;-67